MSC Flavia — 3FBD7 — position and weather

sailwx.info

Track history (hours):
 
Tides and Currents Weather Stations Pressure Air Temp Water Temp Dewpoint Dewpoint Depression Visibility Wind Speed Wind Dir Waves Ship Positions

MSC Flavia

Last reported at 2016-Dec-20 17:22 UTC. Time now 2017-Jan-18 12:08 UTC.
Position N 23°44' E 118°22'.
Warning: this ship's position is 28 days out of date.

Length 366 m; draft 12.1 m.

Type: Ship (hazmat cat A). MMSI: 373004000.

Date/timePositionNaut miles runAvg speedWind from/ knotsBaromVisibWave heightAir tempDewpointWater temp
2016-Dec-20 17:22N 23°44' E 118°22'7618.0
2016-Dec-20 13:09N 22°54' E 117°19'13417.6
2016-Dec-20 05:32N 22°09' E 115°02'52 2.3
2016-Dec-19 07:17N 22°20' E 114°07'2 0.8
2016-Dec-19 04:07N 22°18' E 114°06'1011.6
2016-Dec-19 03:14N 22°22' E 113°55'6 8.3
2016-Dec-19 02:33N 22°27' E 113°53'1 1.0
2016-Dec-19 01:31N 22°28' E 113°53'  
2016-Dec-16 19:27N 23°47' E 118°06'1112.2
2016-Dec-16 18:32N 23°54' E 118°16'1212.0
2016-Dec-16 17:33N 24°05' E 118°19'10 9.9
2016-Dec-16 16:33N 24°15' E 118°15'1514.8
2016-Dec-16 15:33N 24°25' E 118°04'5 0.6
2016-Dec-16 06:26N 24°27' E 117°58'0 0.0
2016-Dec-16 05:32N 24°27' E 117°58'0 0.0
2016-Dec-16 04:20N 24°27' E 117°58'0 0.0
2016-Dec-16 03:32N 24°27' E 117°58'0 0.0
2016-Dec-16 02:32N 24°27' E 117°58'0 0.0
2016-Dec-16 01:32N 24°27' E 117°58'0 0.0
2016-Dec-16 00:26N 24°27' E 117°58'0 0.0
2016-Dec-15 23:29N 24°27' E 117°58'0 0.0
2016-Dec-15 22:26N 24°27' E 117°58'0 0.0
2016-Dec-15 21:32N 24°27' E 117°58'0 0.0
2016-Dec-15 20:26N 24°27' E 117°58'0 0.0
2016-Dec-15 19:26N 24°27' E 117°58'2 2.7
2016-Dec-15 18:34N 24°26' E 118°01'10 9.9
2016-Dec-15 17:34N 24°21' E 118°10'1313.0
2016-Dec-15 16:33N 24°13' E 118°21'1514.5
2016-Dec-15 15:32N 24°17' E 118°37'  
Track history (hours):
 
Tides and Currents Weather Stations Pressure Air Temp Water Temp Dewpoint Dewpoint Depression Visibility Wind Speed Wind Dir Waves Ship Positions

MSC Flavia

Last reported at 2016-Dec-20 17:22 UTC. Time now 2017-Jan-18 12:08 UTC.
Position N 23°44' E 118°22'.
Warning: this ship's position is 28 days out of date.

Length 366 m; draft 12.1 m.

Type: Ship (hazmat cat A). MMSI: 373004000.

Date/timePositionNaut miles runAvg speedWind from/ knotsBaromVisibWave heightAir tempDewpointWater temp
2016-Dec-20 17:22N 23°44' E 118°22'7618.0
2016-Dec-20 13:09N 22°54' E 117°19'13417.6
2016-Dec-20 05:32N 22°09' E 115°02'52 2.3
2016-Dec-19 07:17N 22°20' E 114°07'2 0.8
2016-Dec-19 04:07N 22°18' E 114°06'1011.6
2016-Dec-19 03:14N 22°22' E 113°55'6 8.3
2016-Dec-19 02:33N 22°27' E 113°53'1 1.0
2016-Dec-19 01:31N 22°28' E 113°53'  
2016-Dec-16 19:27N 23°47' E 118°06'1112.2
2016-Dec-16 18:32N 23°54' E 118°16'1212.0
2016-Dec-16 17:33N 24°05' E 118°19'10 9.9
2016-Dec-16 16:33N 24°15' E 118°15'1514.8
2016-Dec-16 15:33N 24°25' E 118°04'5 0.6
2016-Dec-16 06:26N 24°27' E 117°58'0 0.0
2016-Dec-16 05:32N 24°27' E 117°58'0 0.0
2016-Dec-16 04:20N 24°27' E 117°58'0 0.0
2016-Dec-16 03:32N 24°27' E 117°58'0 0.0
2016-Dec-16 02:32N 24°27' E 117°58'0 0.0
2016-Dec-16 01:32N 24°27' E 117°58'0 0.0
2016-Dec-16 00:26N 24°27' E 117°58'0 0.0
2016-Dec-15 23:29N 24°27' E 117°58'0 0.0
2016-Dec-15 22:26N 24°27' E 117°58'0 0.0
2016-Dec-15 21:32N 24°27' E 117°58'0 0.0
2016-Dec-15 20:26N 24°27' E 117°58'0 0.0
2016-Dec-15 19:26N 24°27' E 117°58'2 2.7
2016-Dec-15 18:34N 24°26' E 118°01'10 9.9
2016-Dec-15 17:34N 24°21' E 118°10'1313.0
2016-Dec-15 16:33N 24°13' E 118°21'1514.5
2016-Dec-15 15:32N 24°17' E 118°37'  

Dump ship's entire track history